Aeroporto :
LOGIN :

Iscrizione | Disclaimer

   EN    FR    IT 

 










Sommario :    VFR   VFR Marginale   IFR   IFR Intensivo   IFR Molto Intensivo
Visibilità : 
Base nubi : 
>= 8 km
>= 3000ft
5 / 8 km
1000 / 3000 ft
1500m / 5 km
500 / 1000 ft
800 / 1500m
200 / 500 ft
< 800m
< 200 ft
Simboli :   Temporali  Nebbia  Neve Forte  Precipitazioni Forti  Vento > 20 kt
SIGMETs :   Varie  Temporali  Ghiacco  Turbolenza  Onda orograficha  Ceneri Vulcaniche






- Altitudine del aeroporto : 1197 ft
- Codice IATA : SPM


ETAD - Spangdahlem Ab

ULTIMO METAR :
  • 020711Z 21009KT 9999 FEW010 BKN014 OVC049 17/16 A2988 RMK AO2A SLP098 CHINO RWY05 $

METARs OBSOLETI :
  • 020656Z 21007KT 9999 SCT008 BKN013 OVC044 17/17 A2988 RMK AO2A CIG 008V016 SLP098 T01700168 CHINO RWY05 $
  • 020642Z 21005KT 9999 SCT008 BKN014 BKN042 17/17 A2988 RMK SLP098 CHINO RWY05 $
  • 020626Z 21005KT 9999 BKN008 BKN022 OVC050 16/16 A2988 RMK AO2A CIG 006V008 SLP100 CHINO RWY05 $
  • 020556Z 21008KT 9999 SCT006 BKN011 OVC021 16/16 A2988 RMK AO2A SLP098 60003 T01590159 10159 20146 53002 CHINO RWY05 $
  • 020535Z 00000KT 9999 SCT006 BKN012 OVC017 15/15 A2988 RMK CIG 006V017 CIG 003 RWY24 SLP100 CHINO RWY05 $
  • 020526Z AUTO 00000KT 9999 SCT005 BKN017 OVC022 15/15 A2988 RMK AO2 CIG 000 RWY24 SLP100 CHINO RWY05 $
  • 020511Z AUTO 16003KT 9999 FEW002 BKN022 15/15 A2988 RMK AO2 BKN V FEW CIG 000 RWY24 SLP100 CHINO RWY05 $
  • 020456Z 14002KT 5000 BR FEW003 15/15 A2987 RMK AO2A VIS 3200V9999 RAE00DZB00E02 SLP096 P0001 T01500150 CHINO RWY05 $
  • 020417Z AUTO 00000KT 9999 FEW038 FEW046 SCT055 15/15 A2987 RMK AO2 RAE00DZB00E02 SLP096 CHINO RWY05 $

TAF AMD TAF ETAD
Valido dal 02 a 06 ore il 03 a 10 ore UTC


020606Z 0206/0310 23008KT 9999 SCT006 BKN012 BKN045 QNH2986INS
TEMPO 0206/0207 8000 -SHRA BR BKN006
BECMG 0208/0209 24012KT 8000 -SHRA BKN020 QNH2988INS
BECMG 0217/0218 28007KT 9999 NSW SCT015 BKN020 QNH2991INS
BECMG 0303/0304 06009KT 3600 BR BKN015 QNH2987INS
BECMG 0307/0308 07012KT 9999 NSW SCT013 BKN022 QNH2985INS TX23/0212Z TN09/0304Z



MetMap, La meteo Aeronautica in un colpo d'occhio ! - Copyright ORBIFLY Dicembre 2007 - Disclaimer

ORBIFLY MET'MAP TEAM :

Programmazione e sviluppo : Alexandra Zaïnal
Concezione : Baudouin d'Aumeries
Aiuto per la programmazione : Marc-Olivier Méhu
Supporto tecnico e logistico : Manuel Goepfert
Aiuto per la traduzione : Arnaldo La Scala

Contatto : metmap@orbifly.com




FONTI E CREDITI :

   NOAA